sensor_id;sensor_type;location;lat;lon;timestamp;temperature;humidity
18297;DHT22;18066;52.106;5.534;2023-02-22T00:01:11;9.70;99.90
18297;DHT22;18066;52.106;5.534;2023-02-22T00:04:00;9.70;99.90
18297;DHT22;18066;52.106;5.534;2023-02-22T00:06:28;9.70;99.90
18297;DHT22;18066;52.106;5.534;2023-02-22T00:08:56;9.70;99.90
18297;DHT22;18066;52.106;5.534;2023-02-22T00:11:23;9.60;99.90
18297;DHT22;18066;52.106;5.534;2023-02-22T00:13:50;9.70;99.90
18297;DHT22;18066;52.106;5.534;2023-02-22T00:16:19;9.60;99.90
18297;DHT22;18066;52.106;5.534;2023-02-22T00:18:47;9.60;99.90
18297;DHT22;18066;52.106;5.534;2023-02-22T00:21:15;9.60;99.90
18297;DHT22;18066;52.106;5.534;2023-02-22T00:23:45;9.60;99.90
18297;DHT22;18066;52.106;5.534;2023-02-22T00:26:13;9.70;99.90
18297;DHT22;18066;52.106;5.534;2023-02-22T00:28:43;9.80;99.90
18297;DHT22;18066;52.106;5.534;2023-02-22T00:31:10;9.70;99.90
18297;DHT22;18066;52.106;5.534;2023-02-22T00:33:38;9.50;99.90
18297;DHT22;18066;52.106;5.534;2023-02-22T00:36:05;9.50;99.90
18297;DHT22;18066;52.106;5.534;2023-02-22T00:38:32;9.50;99.90
18297;DHT22;18066;52.106;5.534;2023-02-22T00:41:03;9.50;99.90
18297;DHT22;18066;52.106;5.534;2023-02-22T00:43:30;9.60;99.90
18297;DHT22;18066;52.106;5.534;2023-02-22T00:45:57;9.50;99.90
18297;DHT22;18066;52.106;5.534;2023-02-22T00:48:24;9.60;99.90
18297;DHT22;18066;52.106;5.534;2023-02-22T00:50:50;9.60;99.90
18297;DHT22;18066;52.106;5.534;2023-02-22T00:53:20;9.70;99.90
18297;DHT22;18066;52.106;5.534;2023-02-22T00:55:46;9.50;99.90
18297;DHT22;18066;52.106;5.534;2023-02-22T00:58:15;9.60;99.90
18297;DHT22;18066;52.106;5.534;2023-02-22T01:00:43;9.60;99.90
18297;DHT22;18066;52.106;5.534;2023-02-22T01:03:12;9.50;99.90
18297;DHT22;18066;52.106;5.534;2023-02-22T01:05:39;9.50;99.90
18297;DHT22;18066;52.106;5.534;2023-02-22T01:08:07;9.40;99.90
18297;DHT22;18066;52.106;5.534;2023-02-22T01:10:35;9.40;99.90
18297;DHT22;18066;52.106;5.534;2023-02-22T01:13:03;9.50;99.90
18297;DHT22;18066;52.106;5.534;2023-02-22T01:15:35;9.40;99.90
18297;DHT22;18066;52.106;5.534;2023-02-22T01:18:03;9.50;99.90
18297;DHT22;18066;52.106;5.534;2023-02-22T01:20:30;9.60;99.90
18297;DHT22;18066;52.106;5.534;2023-02-22T01:22:59;9.40;99.90
18297;DHT22;18066;52.106;5.534;2023-02-22T01:25:29;9.30;99.90
18297;DHT22;18066;52.106;5.534;2023-02-22T01:27:57;9.20;99.90
18297;DHT22;18066;52.106;5.534;2023-02-22T01:30:26;9.30;99.90
18297;DHT22;18066;52.106;5.534;2023-02-22T01:32:55;9.20;99.90
18297;DHT22;18066;52.106;5.534;2023-02-22T01:35:24;9.20;99.90
18297;DHT22;18066;52.106;5.534;2023-02-22T01:37:52;9.30;99.90
18297;DHT22;18066;52.106;5.534;2023-02-22T01:40:21;9.30;99.90
18297;DHT22;18066;52.106;5.534;2023-02-22T01:42:51;9.20;99.90
18297;DHT22;18066;52.106;5.534;2023-02-22T01:45:42;9.10;99.90
18297;DHT22;18066;52.106;5.534;2023-02-22T01:48:15;9.10;99.90
18297;DHT22;18066;52.106;5.534;2023-02-22T01:50:47;9.00;99.90
18297;DHT22;18066;52.106;5.534;2023-02-22T01:53:19;9.00;99.90
18297;DHT22;18066;52.106;5.534;2023-02-22T01:55:47;9.10;99.90
18297;DHT22;18066;52.106;5.534;2023-02-22T01:58:15;9.00;99.90
18297;DHT22;18066;52.106;5.534;2023-02-22T02:00:44;9.00;99.90
18297;DHT22;18066;52.106;5.534;2023-02-22T02:03:16;9.10;99.90
18297;DHT22;18066;52.106;5.534;2023-02-22T02:05:46;9.10;99.90
18297;DHT22;18066;52.106;5.534;2023-02-22T02:08:20;9.10;99.90
18297;DHT22;18066;52.106;5.534;2023-02-22T02:10:50;9.10;99.90
18297;DHT22;18066;52.106;5.534;2023-02-22T02:13:19;9.10;99.90
18297;DHT22;18066;52.106;5.534;2023-02-22T02:15:46;9.00;99.90
18297;DHT22;18066;52.106;5.534;2023-02-22T02:18:15;9.10;99.90
18297;DHT22;18066;52.106;5.534;2023-02-22T02:20:51;9.00;99.90
18297;DHT22;18066;52.106;5.534;2023-02-22T02:23:37;8.90;99.90
18297;DHT22;18066;52.106;5.534;2023-02-22T02:26:32;8.90;99.90
18297;DHT22;18066;52.106;5.534;2023-02-22T02:32:20;8.70;99.90
18297;DHT22;18066;52.106;5.534;2023-02-22T02:34:51;8.80;99.90
18297;DHT22;18066;52.106;5.534;2023-02-22T02:37:24;8.70;99.90
18297;DHT22;18066;52.106;5.534;2023-02-22T02:39:59;8.70;99.90
18297;DHT22;18066;52.106;5.534;2023-02-22T02:42:41;8.60;99.90
18297;DHT22;18066;52.106;5.534;2023-02-22T02:45:10;8.50;99.90
18297;DHT22;18066;52.106;5.534;2023-02-22T02:47:43;8.50;99.90
18297;DHT22;18066;52.106;5.534;2023-02-22T02:50:17;8.50;99.90
18297;DHT22;18066;52.106;5.534;2023-02-22T02:52:47;8.50;99.90
18297;DHT22;18066;52.106;5.534;2023-02-22T02:55:16;8.60;99.90
18297;DHT22;18066;52.106;5.534;2023-02-22T02:57:43;8.60;99.90
18297;DHT22;18066;52.106;5.534;2023-02-22T03:00:16;8.70;99.90
18297;DHT22;18066;52.106;5.534;2023-02-22T03:02:57;8.70;99.90
18297;DHT22;18066;52.106;5.534;2023-02-22T03:05:42;8.70;99.90
18297;DHT22;18066;52.106;5.534;2023-02-22T03:08:16;8.70;99.90
18297;DHT22;18066;52.106;5.534;2023-02-22T03:10:51;8.60;99.90
18297;DHT22;18066;52.106;5.534;2023-02-22T03:13:28;8.60;99.90
18297;DHT22;18066;52.106;5.534;2023-02-22T03:16:05;8.70;99.90
18297;DHT22;18066;52.106;5.534;2023-02-22T03:18:42;8.50;99.90
18297;DHT22;18066;52.106;5.534;2023-02-22T03:21:21;8.50;99.90
18297;DHT22;18066;52.106;5.534;2023-02-22T03:23:52;8.60;99.90
18297;DHT22;18066;52.106;5.534;2023-02-22T03:26:30;8.60;99.90
18297;DHT22;18066;52.106;5.534;2023-02-22T03:28:59;8.60;99.90
18297;DHT22;18066;52.106;5.534;2023-02-22T03:31:33;8.60;99.90
18297;DHT22;18066;52.106;5.534;2023-02-22T03:34:06;8.50;99.90
18297;DHT22;18066;52.106;5.534;2023-02-22T03:36:35;8.50;99.90
18297;DHT22;18066;52.106;5.534;2023-02-22T03:39:08;8.40;99.90
18297;DHT22;18066;52.106;5.534;2023-02-22T03:41:38;8.50;99.90
18297;DHT22;18066;52.106;5.534;2023-02-22T03:44:08;8.50;99.90
18297;DHT22;18066;52.106;5.534;2023-02-22T03:46:37;8.60;99.90
18297;DHT22;18066;52.106;5.534;2023-02-22T03:49:09;8.60;99.90
18297;DHT22;18066;52.106;5.534;2023-02-22T03:51:37;8.60;99.90
18297;DHT22;18066;52.106;5.534;2023-02-22T03:54:05;8.60;99.90
18297;DHT22;18066;52.106;5.534;2023-02-22T03:56:38;8.50;99.90
18297;DHT22;18066;52.106;5.534;2023-02-22T03:59:11;8.50;99.90
18297;DHT22;18066;52.106;5.534;2023-02-22T04:01:39;8.40;99.90
18297;DHT22;18066;52.106;5.534;2023-02-22T04:04:07;8.30;99.90
18297;DHT22;18066;52.106;5.534;2023-02-22T04:06:34;8.30;99.90
18297;DHT22;18066;52.106;5.534;2023-02-22T04:09:00;8.30;99.90
18297;DHT22;18066;52.106;5.534;2023-02-22T04:11:27;8.40;99.90
18297;DHT22;18066;52.106;5.534;2023-02-22T04:13:54;8.40;99.90
18297;DHT22;18066;52.106;5.534;2023-02-22T04:16:21;8.40;99.90
18297;DHT22;18066;52.106;5.534;2023-02-22T04:18:48;8.30;99.90
18297;DHT22;18066;52.106;5.534;2023-02-22T04:21:16;8.30;99.90
18297;DHT22;18066;52.106;5.534;2023-02-22T04:23:43;8.30;99.90
18297;DHT22;18066;52.106;5.534;2023-02-22T04:26:10;8.30;99.90
18297;DHT22;18066;52.106;5.534;2023-02-22T04:28:37;8.30;99.90
18297;DHT22;18066;52.106;5.534;2023-02-22T04:31:04;8.30;99.90
18297;DHT22;18066;52.106;5.534;2023-02-22T04:33:31;8.30;99.90
18297;DHT22;18066;52.106;5.534;2023-02-22T04:35:58;8.30;99.90
18297;DHT22;18066;52.106;5.534;2023-02-22T04:38:26;8.40;99.90
18297;DHT22;18066;52.106;5.534;2023-02-22T04:40:53;8.50;99.90
18297;DHT22;18066;52.106;5.534;2023-02-22T04:43:20;8.40;99.90
18297;DHT22;18066;52.106;5.534;2023-02-22T04:45:47;8.50;99.90
18297;DHT22;18066;52.106;5.534;2023-02-22T04:48:14;8.50;99.90
18297;DHT22;18066;52.106;5.534;2023-02-22T04:50:41;8.50;99.90
18297;DHT22;18066;52.106;5.534;2023-02-22T04:53:08;8.60;99.90
18297;DHT22;18066;52.106;5.534;2023-02-22T04:55:36;8.50;99.90
18297;DHT22;18066;52.106;5.534;2023-02-22T04:58:03;8.50;99.90
18297;DHT22;18066;52.106;5.534;2023-02-22T05:00:29;8.40;99.90
18297;DHT22;18066;52.106;5.534;2023-02-22T05:02:56;8.20;99.90
18297;DHT22;18066;52.106;5.534;2023-02-22T05:05:23;8.20;99.90
18297;DHT22;18066;52.106;5.534;2023-02-22T05:07:50;8.20;99.90
18297;DHT22;18066;52.106;5.534;2023-02-22T05:10:17;8.20;99.90
18297;DHT22;18066;52.106;5.534;2023-02-22T05:12:45;8.20;99.90
18297;DHT22;18066;52.106;5.534;2023-02-22T05:15:15;8.00;99.90
18297;DHT22;18066;52.106;5.534;2023-02-22T05:17:43;8.10;99.90
18297;DHT22;18066;52.106;5.534;2023-02-22T05:20:16;8.10;99.90
18297;DHT22;18066;52.106;5.534;2023-02-22T05:22:46;8.20;99.90
18297;DHT22;18066;52.106;5.534;2023-02-22T05:25:13;8.10;99.90
18297;DHT22;18066;52.106;5.534;2023-02-22T05:27:40;8.20;99.90
18297;DHT22;18066;52.106;5.534;2023-02-22T05:30:10;8.30;99.90
18297;DHT22;18066;52.106;5.534;2023-02-22T05:32:37;8.30;99.90
18297;DHT22;18066;52.106;5.534;2023-02-22T05:35:04;8.40;99.90
18297;DHT22;18066;52.106;5.534;2023-02-22T05:37:32;8.40;99.90
18297;DHT22;18066;52.106;5.534;2023-02-22T05:40:00;8.40;99.90
18297;DHT22;18066;52.106;5.534;2023-02-22T05:42:26;8.40;99.90
18297;DHT22;18066;52.106;5.534;2023-02-22T05:44:53;8.30;99.90
18297;DHT22;18066;52.106;5.534;2023-02-22T05:47:21;8.20;99.90
18297;DHT22;18066;52.106;5.534;2023-02-22T05:49:48;8.20;99.90
18297;DHT22;18066;52.106;5.534;2023-02-22T05:52:15;8.10;99.90
18297;DHT22;18066;52.106;5.534;2023-02-22T05:54:42;8.00;99.90
18297;DHT22;18066;52.106;5.534;2023-02-22T05:57:09;8.00;99.90
18297;DHT22;18066;52.106;5.534;2023-02-22T05:59:36;8.00;99.90
18297;DHT22;18066;52.106;5.534;2023-02-22T06:02:02;8.00;99.90
18297;DHT22;18066;52.106;5.534;2023-02-22T06:04:30;8.20;99.90
18297;DHT22;18066;52.106;5.534;2023-02-22T06:06:57;8.10;99.90
18297;DHT22;18066;52.106;5.534;2023-02-22T06:09:24;8.20;99.90
18297;DHT22;18066;52.106;5.534;2023-02-22T06:11:51;8.20;99.90
18297;DHT22;18066;52.106;5.534;2023-02-22T06:14:18;8.20;99.90
18297;DHT22;18066;52.106;5.534;2023-02-22T06:16:51;8.20;99.90
18297;DHT22;18066;52.106;5.534;2023-02-22T06:19:18;8.20;99.90
18297;DHT22;18066;52.106;5.534;2023-02-22T06:21:49;8.20;99.90
18297;DHT22;18066;52.106;5.534;2023-02-22T06:24:16;8.10;99.90
18297;DHT22;18066;52.106;5.534;2023-02-22T06:26:43;8.00;99.90
18297;DHT22;18066;52.106;5.534;2023-02-22T06:29:10;8.00;99.90
18297;DHT22;18066;52.106;5.534;2023-02-22T06:31:37;8.00;99.90
18297;DHT22;18066;52.106;5.534;2023-02-22T06:34:03;7.90;99.90
18297;DHT22;18066;52.106;5.534;2023-02-22T06:36:30;7.80;99.90
18297;DHT22;18066;52.106;5.534;2023-02-22T06:38:58;7.50;99.90
18297;DHT22;18066;52.106;5.534;2023-02-22T06:41:25;7.60;99.90
18297;DHT22;18066;52.106;5.534;2023-02-22T06:43:52;7.60;99.90
18297;DHT22;18066;52.106;5.534;2023-02-22T06:46:19;7.60;99.90
18297;DHT22;18066;52.106;5.534;2023-02-22T06:48:46;7.60;99.90
18297;DHT22;18066;52.106;5.534;2023-02-22T06:51:14;7.60;99.90
18297;DHT22;18066;52.106;5.534;2023-02-22T06:53:41;7.60;99.90
18297;DHT22;18066;52.106;5.534;2023-02-22T06:56:10;7.60;99.90
18297;DHT22;18066;52.106;5.534;2023-02-22T06:58:37;7.60;99.90
18297;DHT22;18066;52.106;5.534;2023-02-22T07:01:04;7.80;99.90
18297;DHT22;18066;52.106;5.534;2023-02-22T07:03:32;7.70;99.90
18297;DHT22;18066;52.106;5.534;2023-02-22T07:06:00;7.80;99.90
18297;DHT22;18066;52.106;5.534;2023-02-22T07:08:28;7.80;99.90
18297;DHT22;18066;52.106;5.534;2023-02-22T07:10:55;7.70;99.90
18297;DHT22;18066;52.106;5.534;2023-02-22T07:13:24;7.70;99.90
18297;DHT22;18066;52.106;5.534;2023-02-22T07:15:50;7.70;99.90
18297;DHT22;18066;52.106;5.534;2023-02-22T07:18:17;7.80;99.90
18297;DHT22;18066;52.106;5.534;2023-02-22T07:20:44;7.70;99.90
18297;DHT22;18066;52.106;5.534;2023-02-22T07:23:13;7.70;99.90
18297;DHT22;18066;52.106;5.534;2023-02-22T07:25:40;7.80;99.90
18297;DHT22;18066;52.106;5.534;2023-02-22T07:28:07;7.80;99.90
18297;DHT22;18066;52.106;5.534;2023-02-22T07:30:37;7.90;99.90
18297;DHT22;18066;52.106;5.534;2023-02-22T07:33:06;8.00;99.90
18297;DHT22;18066;52.106;5.534;2023-02-22T07:35:36;8.00;99.90
18297;DHT22;18066;52.106;5.534;2023-02-22T07:38:03;8.10;99.90
18297;DHT22;18066;52.106;5.534;2023-02-22T07:40:32;8.20;99.90
18297;DHT22;18066;52.106;5.534;2023-02-22T07:43:00;8.20;99.90
18297;DHT22;18066;52.106;5.534;2023-02-22T07:45:29;8.30;99.90
18297;DHT22;18066;52.106;5.534;2023-02-22T07:47:58;8.30;99.90
18297;DHT22;18066;52.106;5.534;2023-02-22T07:50:27;8.50;99.90
18297;DHT22;18066;52.106;5.534;2023-02-22T07:52:56;8.50;99.90
18297;DHT22;18066;52.106;5.534;2023-02-22T07:55:25;8.40;99.90
18297;DHT22;18066;52.106;5.534;2023-02-22T07:57:54;8.50;99.90
18297;DHT22;18066;52.106;5.534;2023-02-22T08:00:22;8.30;99.90
18297;DHT22;18066;52.106;5.534;2023-02-22T08:02:50;8.50;99.90
18297;DHT22;18066;52.106;5.534;2023-02-22T08:05:19;8.50;99.90
18297;DHT22;18066;52.106;5.534;2023-02-22T08:07:46;8.50;99.90
18297;DHT22;18066;52.106;5.534;2023-02-22T08:10:14;8.50;99.90
18297;DHT22;18066;52.106;5.534;2023-02-22T08:12:42;8.40;99.90
18297;DHT22;18066;52.106;5.534;2023-02-22T08:15:15;8.40;99.90
18297;DHT22;18066;52.106;5.534;2023-02-22T08:17:42;8.40;99.90
18297;DHT22;18066;52.106;5.534;2023-02-22T08:20:09;8.60;99.90
18297;DHT22;18066;52.106;5.534;2023-02-22T08:22:38;8.60;99.90
18297;DHT22;18066;52.106;5.534;2023-02-22T08:25:05;8.70;99.90
18297;DHT22;18066;52.106;5.534;2023-02-22T08:27:32;8.70;99.90
18297;DHT22;18066;52.106;5.534;2023-02-22T08:29:59;8.70;99.90
18297;DHT22;18066;52.106;5.534;2023-02-22T08:32:26;8.70;99.90
18297;DHT22;18066;52.106;5.534;2023-02-22T08:34:53;8.70;99.90
18297;DHT22;18066;52.106;5.534;2023-02-22T08:37:20;8.60;99.90
18297;DHT22;18066;52.106;5.534;2023-02-22T08:39:48;8.50;99.90
18297;DHT22;18066;52.106;5.534;2023-02-22T08:42:15;8.60;99.90
18297;DHT22;18066;52.106;5.534;2023-02-22T08:44:41;8.60;99.90
18297;DHT22;18066;52.106;5.534;2023-02-22T08:47:08;8.70;99.90
18297;DHT22;18066;52.106;5.534;2023-02-22T08:49:35;8.60;99.90
18297;DHT22;18066;52.106;5.534;2023-02-22T08:52:02;8.60;99.90
18297;DHT22;18066;52.106;5.534;2023-02-22T08:54:29;8.50;99.90
18297;DHT22;18066;52.106;5.534;2023-02-22T08:56:57;8.60;99.90
18297;DHT22;18066;52.106;5.534;2023-02-22T08:59:24;8.70;99.90
18297;DHT22;18066;52.106;5.534;2023-02-22T09:01:51;8.90;99.90
18297;DHT22;18066;52.106;5.534;2023-02-22T09:04:19;8.90;99.90
18297;DHT22;18066;52.106;5.534;2023-02-22T09:06:45;9.10;99.90
18297;DHT22;18066;52.106;5.534;2023-02-22T09:09:16;9.10;99.90
18297;DHT22;18066;52.106;5.534;2023-02-22T09:11:45;9.00;99.90
18297;DHT22;18066;52.106;5.534;2023-02-22T09:14:14;9.00;99.90
18297;DHT22;18066;52.106;5.534;2023-02-22T09:16:42;9.00;99.90
18297;DHT22;18066;52.106;5.534;2023-02-22T09:19:09;9.10;99.90
18297;DHT22;18066;52.106;5.534;2023-02-22T09:21:36;9.20;99.90
18297;DHT22;18066;52.106;5.534;2023-02-22T09:24:05;9.20;99.90
18297;DHT22;18066;52.106;5.534;2023-02-22T09:26:34;9.20;99.90
18297;DHT22;18066;52.106;5.534;2023-02-22T09:29:04;9.30;99.90
18297;DHT22;18066;52.106;5.534;2023-02-22T09:31:35;9.40;99.90
18297;DHT22;18066;52.106;5.534;2023-02-22T09:34:02;9.50;99.90
18297;DHT22;18066;52.106;5.534;2023-02-22T09:36:31;9.70;99.90
18297;DHT22;18066;52.106;5.534;2023-02-22T09:38:57;9.70;99.90
18297;DHT22;18066;52.106;5.534;2023-02-22T09:41:26;9.70;99.90
18297;DHT22;18066;52.106;5.534;2023-02-22T09:44:10;9.80;99.90
18297;DHT22;18066;52.106;5.534;2023-02-22T09:46:43;9.80;99.90
18297;DHT22;18066;52.106;5.534;2023-02-22T09:49:17;9.80;99.90
18297;DHT22;18066;52.106;5.534;2023-02-22T09:51:48;9.90;99.90
18297;DHT22;18066;52.106;5.534;2023-02-22T09:54:21;9.80;99.90
18297;DHT22;18066;52.106;5.534;2023-02-22T09:56:52;10.00;99.90
18297;DHT22;18066;52.106;5.534;2023-02-22T09:59:25;10.10;99.90
18297;DHT22;18066;52.106;5.534;2023-02-22T10:01:59;10.30;99.90
18297;DHT22;18066;52.106;5.534;2023-02-22T10:04:38;10.30;99.90
18297;DHT22;18066;52.106;5.534;2023-02-22T10:07:16;10.40;99.90
18297;DHT22;18066;52.106;5.534;2023-02-22T10:09:45;10.50;99.90
18297;DHT22;18066;52.106;5.534;2023-02-22T10:12:17;10.50;99.90
18297;DHT22;18066;52.106;5.534;2023-02-22T10:17:52;10.50;99.90
18297;DHT22;18066;52.106;5.534;2023-02-22T10:20:38;10.60;99.90
18297;DHT22;18066;52.106;5.534;2023-02-22T10:23:12;10.70;99.90
18297;DHT22;18066;52.106;5.534;2023-02-22T10:25:44;10.80;99.90
18297;DHT22;18066;52.106;5.534;2023-02-22T10:28:18;11.00;99.90
18297;DHT22;18066;52.106;5.534;2023-02-22T10:30:48;11.10;99.90
18297;DHT22;18066;52.106;5.534;2023-02-22T10:33:22;11.20;99.90
18297;DHT22;18066;52.106;5.534;2023-02-22T10:35:52;11.20;99.90
18297;DHT22;18066;52.106;5.534;2023-02-22T10:38:21;11.20;99.90
18297;DHT22;18066;52.106;5.534;2023-02-22T10:40:53;11.30;99.90
18297;DHT22;18066;52.106;5.534;2023-02-22T10:43:22;11.30;99.90
18297;DHT22;18066;52.106;5.534;2023-02-22T10:45:52;11.50;99.90
18297;DHT22;18066;52.106;5.534;2023-02-22T10:48:24;11.50;99.90
18297;DHT22;18066;52.106;5.534;2023-02-22T10:50:54;11.60;99.90
18297;DHT22;18066;52.106;5.534;2023-02-22T10:53:22;11.70;99.90
18297;DHT22;18066;52.106;5.534;2023-02-22T10:56:11;11.70;99.90
18297;DHT22;18066;52.106;5.534;2023-02-22T10:58:43;11.80;99.90
18297;DHT22;18066;52.106;5.534;2023-02-22T11:01:24;11.80;99.90
18297;DHT22;18066;52.106;5.534;2023-02-22T11:03:58;11.80;99.90
18297;DHT22;18066;52.106;5.534;2023-02-22T11:06:26;11.80;99.90
18297;DHT22;18066;52.106;5.534;2023-02-22T11:09:07;11.80;99.90
18297;DHT22;18066;52.106;5.534;2023-02-22T11:11:36;11.90;99.90
18297;DHT22;18066;52.106;5.534;2023-02-22T11:14:04;11.90;99.90
18297;DHT22;18066;52.106;5.534;2023-02-22T11:16:34;11.80;99.90
18297;DHT22;18066;52.106;5.534;2023-02-22T11:19:15;11.70;99.90
18297;DHT22;18066;52.106;5.534;2023-02-22T11:21:45;11.70;99.90
18297;DHT22;18066;52.106;5.534;2023-02-22T11:24:13;11.60;99.90
18297;DHT22;18066;52.106;5.534;2023-02-22T11:26:42;11.60;99.90
18297;DHT22;18066;52.106;5.534;2023-02-22T11:29:14;11.60;99.90
18297;DHT22;18066;52.106;5.534;2023-02-22T11:31:44;11.70;99.90
18297;DHT22;18066;52.106;5.534;2023-02-22T11:34:28;11.60;99.90
18297;DHT22;18066;52.106;5.534;2023-02-22T11:36:56;11.70;99.90
18297;DHT22;18066;52.106;5.534;2023-02-22T11:39:25;11.70;99.90
18297;DHT22;18066;52.106;5.534;2023-02-22T11:41:53;11.70;99.90
18297;DHT22;18066;52.106;5.534;2023-02-22T11:44:23;11.60;99.90
18297;DHT22;18066;52.106;5.534;2023-02-22T11:46:52;11.60;99.90
18297;DHT22;18066;52.106;5.534;2023-02-22T11:49:22;11.60;99.90
18297;DHT22;18066;52.106;5.534;2023-02-22T11:52:02;11.60;99.90
18297;DHT22;18066;52.106;5.534;2023-02-22T11:54:46;11.60;99.90
18297;DHT22;18066;52.106;5.534;2023-02-22T11:57:25;11.60;99.90
18297;DHT22;18066;52.106;5.534;2023-02-22T12:00:04;11.60;99.90
18297;DHT22;18066;52.106;5.534;2023-02-22T12:02:52;11.70;99.90
18297;DHT22;18066;52.106;5.534;2023-02-22T12:05:29;11.70;99.90
18297;DHT22;18066;52.106;5.534;2023-02-22T12:08:11;11.80;99.90
18297;DHT22;18066;52.106;5.534;2023-02-22T12:10:50;11.80;99.90
18297;DHT22;18066;52.106;5.534;2023-02-22T12:13:34;11.80;99.90
18297;DHT22;18066;52.106;5.534;2023-02-22T12:16:11;11.80;99.90
18297;DHT22;18066;52.106;5.534;2023-02-22T12:18:54;11.80;99.90
18297;DHT22;18066;52.106;5.534;2023-02-22T12:21:25;11.70;99.90
18297;DHT22;18066;52.106;5.534;2023-02-22T12:23:59;11.60;99.90
18297;DHT22;18066;52.106;5.534;2023-02-22T12:26:30;11.50;99.90
18297;DHT22;18066;52.106;5.534;2023-02-22T12:29:03;11.50;99.90
18297;DHT22;18066;52.106;5.534;2023-02-22T12:31:35;11.40;99.90
18297;DHT22;18066;52.106;5.534;2023-02-22T12:34:07;11.30;99.90
18297;DHT22;18066;52.106;5.534;2023-02-22T12:36:40;11.30;99.90
18297;DHT22;18066;52.106;5.534;2023-02-22T12:39:24;11.30;99.90
18297;DHT22;18066;52.106;5.534;2023-02-22T12:41:54;11.20;99.90
18297;DHT22;18066;52.106;5.534;2023-02-22T12:44:25;11.40;99.90
18297;DHT22;18066;52.106;5.534;2023-02-22T12:46:55;11.50;99.90
18297;DHT22;18066;52.106;5.534;2023-02-22T12:49:30;11.70;99.90
18297;DHT22;18066;52.106;5.534;2023-02-22T12:52:03;11.90;99.90
18297;DHT22;18066;52.106;5.534;2023-02-22T12:54:44;12.00;99.90
18297;DHT22;18066;52.106;5.534;2023-02-22T12:57:19;12.00;99.90
18297;DHT22;18066;52.106;5.534;2023-02-22T12:59:49;12.00;99.90
18297;DHT22;18066;52.106;5.534;2023-02-22T13:02:24;12.00;99.90
18297;DHT22;18066;52.106;5.534;2023-02-22T13:04:53;12.10;99.90
18297;DHT22;18066;52.106;5.534;2023-02-22T13:07:31;12.10;99.90
18297;DHT22;18066;52.106;5.534;2023-02-22T13:10:21;12.10;99.90
18297;DHT22;18066;52.106;5.534;2023-02-22T13:12:54;12.10;99.90
18297;DHT22;18066;52.106;5.534;2023-02-22T13:15:27;12.10;99.90
18297;DHT22;18066;52.106;5.534;2023-02-22T13:18:03;12.10;99.90
18297;DHT22;18066;52.106;5.534;2023-02-22T13:20:35;12.10;99.90
18297;DHT22;18066;52.106;5.534;2023-02-22T13:23:09;12.10;99.90
18297;DHT22;18066;52.106;5.534;2023-02-22T13:25:47;12.00;99.90
18297;DHT22;18066;52.106;5.534;2023-02-22T13:28:23;12.00;99.90
18297;DHT22;18066;52.106;5.534;2023-02-22T13:31:05;12.00;99.90
18297;DHT22;18066;52.106;5.534;2023-02-22T13:33:49;12.10;99.90
18297;DHT22;18066;52.106;5.534;2023-02-22T13:36:33;12.20;99.90
18297;DHT22;18066;52.106;5.534;2023-02-22T13:42:16;12.30;99.90
18297;DHT22;18066;52.106;5.534;2023-02-22T13:45:34;12.30;99.90
18297;DHT22;18066;52.106;5.534;2023-02-22T13:48:12;12.30;99.90
18297;DHT22;18066;52.106;5.534;2023-02-22T13:51:04;12.30;99.90
18297;DHT22;18066;52.106;5.534;2023-02-22T13:53:41;12.20;99.90
18297;DHT22;18066;52.106;5.534;2023-02-22T13:56:09;12.10;99.90
18297;DHT22;18066;52.106;5.534;2023-02-22T13:58:50;12.20;99.90
18297;DHT22;18066;52.106;5.534;2023-02-22T14:01:36;12.20;99.90
18297;DHT22;18066;52.106;5.534;2023-02-22T14:04:33;12.00;99.90
18297;DHT22;18066;52.106;5.534;2023-02-22T14:07:02;12.00;99.90
18297;DHT22;18066;52.106;5.534;2023-02-22T14:09:45;12.00;99.90
18297;DHT22;18066;52.106;5.534;2023-02-22T14:15:15;11.90;99.90
18297;DHT22;18066;52.106;5.534;2023-02-22T14:17:43;11.90;99.90
18297;DHT22;18066;52.106;5.534;2023-02-22T14:20:20;11.80;99.90
18297;DHT22;18066;52.106;5.534;2023-02-22T14:22:54;11.90;99.90
18297;DHT22;18066;52.106;5.534;2023-02-22T14:25:34;11.80;99.90
18297;DHT22;18066;52.106;5.534;2023-02-22T14:28:03;11.80;99.90
18297;DHT22;18066;52.106;5.534;2023-02-22T14:30:33;11.70;99.90
18297;DHT22;18066;52.106;5.534;2023-02-22T14:33:00;11.70;99.90
18297;DHT22;18066;52.106;5.534;2023-02-22T14:35:33;11.70;99.90
18297;DHT22;18066;52.106;5.534;2023-02-22T14:38:03;11.70;99.90
18297;DHT22;18066;52.106;5.534;2023-02-22T14:40:35;11.70;99.90
18297;DHT22;18066;52.106;5.534;2023-02-22T14:43:06;11.70;99.90
18297;DHT22;18066;52.106;5.534;2023-02-22T14:45:43;11.70;99.90
18297;DHT22;18066;52.106;5.534;2023-02-22T14:48:19;11.80;99.90
18297;DHT22;18066;52.106;5.534;2023-02-22T14:50:51;11.80;99.90
18297;DHT22;18066;52.106;5.534;2023-02-22T14:53:23;11.70;99.90
18297;DHT22;18066;52.106;5.534;2023-02-22T14:55:55;11.70;99.90
18297;DHT22;18066;52.106;5.534;2023-02-22T14:58:27;11.70;99.90
18297;DHT22;18066;52.106;5.534;2023-02-22T15:00:56;11.80;99.90
18297;DHT22;18066;52.106;5.534;2023-02-22T15:03:29;11.80;99.90
18297;DHT22;18066;52.106;5.534;2023-02-22T15:06:03;11.80;99.90
18297;DHT22;18066;52.106;5.534;2023-02-22T15:08:30;11.80;99.90
18297;DHT22;18066;52.106;5.534;2023-02-22T15:10:59;11.80;99.90
18297;DHT22;18066;52.106;5.534;2023-02-22T15:13:28;11.60;99.90
18297;DHT22;18066;52.106;5.534;2023-02-22T15:16:00;11.60;99.90
18297;DHT22;18066;52.106;5.534;2023-02-22T15:18:31;11.60;99.90
18297;DHT22;18066;52.106;5.534;2023-02-22T15:21:03;11.60;99.90
18297;DHT22;18066;52.106;5.534;2023-02-22T15:23:39;11.60;99.90
18297;DHT22;18066;52.106;5.534;2023-02-22T15:26:07;11.50;99.90
18297;DHT22;18066;52.106;5.534;2023-02-22T15:28:41;11.60;99.90
18297;DHT22;18066;52.106;5.534;2023-02-22T15:31:25;11.60;99.90
18297;DHT22;18066;52.106;5.534;2023-02-22T15:33:52;11.60;99.90
18297;DHT22;18066;52.106;5.534;2023-02-22T15:36:24;11.60;99.90
18297;DHT22;18066;52.106;5.534;2023-02-22T15:38:52;11.60;99.90
18297;DHT22;18066;52.106;5.534;2023-02-22T15:41:25;11.50;99.90
18297;DHT22;18066;52.106;5.534;2023-02-22T15:44:02;11.40;99.90
18297;DHT22;18066;52.106;5.534;2023-02-22T15:46:31;11.30;99.90
18297;DHT22;18066;52.106;5.534;2023-02-22T15:49:19;11.30;99.90
18297;DHT22;18066;52.106;5.534;2023-02-22T15:51:52;11.30;99.90
18297;DHT22;18066;52.106;5.534;2023-02-22T15:54:27;11.20;99.90
18297;DHT22;18066;52.106;5.534;2023-02-22T15:56:53;11.20;99.90
18297;DHT22;18066;52.106;5.534;2023-02-22T15:59:22;11.10;99.90
18297;DHT22;18066;52.106;5.534;2023-02-22T16:01:57;11.00;99.90
18297;DHT22;18066;52.106;5.534;2023-02-22T16:04:26;11.00;99.90
18297;DHT22;18066;52.106;5.534;2023-02-22T16:07:02;10.90;99.90
18297;DHT22;18066;52.106;5.534;2023-02-22T16:09:31;10.90;99.90
18297;DHT22;18066;52.106;5.534;2023-02-22T16:12:09;10.90;99.90
18297;DHT22;18066;52.106;5.534;2023-02-22T16:14:40;10.80;99.90
18297;DHT22;18066;52.106;5.534;2023-02-22T16:17:23;10.80;99.90